createdAt,value
2024-02-09T00:00:20.797Z,1.25
2024-02-09T00:02:53.773Z,2.15
2024-02-09T00:05:25.983Z,3.00
2024-02-09T00:07:55.651Z,3.10
2024-02-09T00:10:25.322Z,2.50
2024-02-09T00:12:55.115Z,1.67
2024-02-09T00:15:25.348Z,1.30
2024-02-09T00:17:56.341Z,1.63
2024-02-09T00:20:26.569Z,1.48
2024-02-09T00:22:56.163Z,1.17
2024-02-09T00:25:25.729Z,1.38
2024-02-09T00:27:56.009Z,1.92
2024-02-09T00:30:26.628Z,2.00
2024-02-09T00:33:00.622Z,1.20
2024-02-09T00:35:33.618Z,1.50
2024-02-09T00:38:04.449Z,1.27
2024-02-09T00:40:34.702Z,1.90
2024-02-09T00:45:53.022Z,1.60
2024-02-09T00:48:22.743Z,1.67
2024-02-09T00:50:55.045Z,2.10
2024-02-09T00:53:24.629Z,2.08
2024-02-09T00:55:54.232Z,1.80
2024-02-09T00:58:23.970Z,1.88
2024-02-09T01:00:55.252Z,1.75
2024-02-09T01:03:25.725Z,1.95
2024-02-09T01:05:55.486Z,1.67
2024-02-09T01:08:30.047Z,1.80
2024-02-09T01:11:00.009Z,2.03
2024-02-09T01:13:46.793Z,2.42
2024-02-09T01:16:34.981Z,2.08
2024-02-09T01:19:22.068Z,2.13
2024-02-09T01:22:08.869Z,1.80
2024-02-09T01:24:55.566Z,2.17
2024-02-09T01:27:42.274Z,2.08
2024-02-09T01:30:30.390Z,1.92
2024-02-09T01:33:18.554Z,2.13
2024-02-09T01:36:05.460Z,1.27
2024-02-09T01:38:53.180Z,1.83
2024-02-09T01:41:39.911Z,2.22
2024-02-09T01:44:27.053Z,2.80
2024-02-09T01:47:14.785Z,2.83
2024-02-09T01:50:03.596Z,2.70
2024-02-09T01:52:50.990Z,3.35
2024-02-09T01:55:37.952Z,2.42
2024-02-09T01:58:26.901Z,2.03
2024-02-09T02:01:16.030Z,2.90
2024-02-09T02:04:04.262Z,3.70
2024-02-09T02:06:53.570Z,2.10
2024-02-09T02:09:40.311Z,2.47
2024-02-09T02:12:27.723Z,1.85
2024-02-09T02:15:14.327Z,2.03
2024-02-09T02:18:01.105Z,2.20
2024-02-09T02:20:48.487Z,2.47
2024-02-09T02:23:45.388Z,2.75
2024-02-09T02:26:32.600Z,2.65
2024-02-09T02:29:19.357Z,2.70
2024-02-09T02:32:06.450Z,2.92
2024-02-09T02:34:53.212Z,2.03
2024-02-09T02:37:40.047Z,2.72
2024-02-09T02:40:29.737Z,2.03
2024-02-09T02:43:00.331Z,1.55
2024-02-09T02:45:29.976Z,2.80
2024-02-09T02:48:13.255Z,2.10
2024-02-09T02:51:00.088Z,2.20
2024-02-09T02:53:47.132Z,2.28
2024-02-09T02:56:35.452Z,2.40
2024-02-09T02:59:22.469Z,2.50
2024-02-09T03:02:05.807Z,2.33
2024-02-09T03:04:35.605Z,2.15
2024-02-09T03:07:24.866Z,2.35
2024-02-09T03:09:55.068Z,2.53
2024-02-09T03:12:26.177Z,1.73
2024-02-09T03:14:55.950Z,2.17
2024-02-09T03:17:26.194Z,2.88
2024-02-09T03:19:59.206Z,2.03
2024-02-09T03:22:28.723Z,2.20
2024-02-09T03:24:59.308Z,1.88
2024-02-09T03:27:31.378Z,1.95
2024-02-09T03:30:01.933Z,2.53
2024-02-09T03:32:32.217Z,2.25
2024-02-09T03:35:03.014Z,2.50
2024-02-09T03:37:34.685Z,2.53
2024-02-09T03:40:05.164Z,2.72
2024-02-09T03:42:36.038Z,2.10
2024-02-09T03:46:49.978Z,1.83
2024-02-09T03:49:19.474Z,2.08
2024-02-09T03:51:49.090Z,2.70
2024-02-09T03:54:18.589Z,1.55
2024-02-09T03:56:48.130Z,2.42
2024-02-09T03:59:17.649Z,2.15
2024-02-09T04:01:48.639Z,2.35
2024-02-09T04:04:20.227Z,2.40
2024-02-09T04:06:49.788Z,2.72
2024-02-09T04:09:40.718Z,2.65
2024-02-09T04:12:10.133Z,2.65
2024-02-09T04:14:39.732Z,2.45
2024-02-09T04:17:10.985Z,2.88
2024-02-09T04:19:40.782Z,3.45
2024-02-09T04:22:11.963Z,3.00
2024-02-09T04:24:41.611Z,3.83
2024-02-09T04:27:11.020Z,2.85
2024-02-09T04:29:40.555Z,2.63
2024-02-09T04:32:12.383Z,2.63
2024-02-09T04:34:42.021Z,2.30
2024-02-09T04:37:11.611Z,2.63
2024-02-09T04:39:41.071Z,2.30
2024-02-09T04:42:10.595Z,1.90
2024-02-09T04:44:40.370Z,2.13
2024-02-09T04:47:11.294Z,1.63
2024-02-09T04:49:40.732Z,1.65
2024-02-09T04:52:13.540Z,1.33
2024-02-09T04:54:42.942Z,1.30
2024-02-09T04:57:13.185Z,1.15
2024-02-09T04:59:42.826Z,1.50
2024-02-09T05:02:13.873Z,2.30
2024-02-09T05:04:43.641Z,2.30
2024-02-09T05:07:13.764Z,1.98
2024-02-09T05:09:43.568Z,1.45
2024-02-09T05:12:13.217Z,1.67
2024-02-09T05:14:42.711Z,1.90
2024-02-09T05:17:13.771Z,1.65
2024-02-09T05:19:43.829Z,1.77
2024-02-09T05:22:13.431Z,1.33
2024-02-09T05:24:43.116Z,1.45
2024-02-09T05:27:12.838Z,1.95
2024-02-09T05:29:42.476Z,4.28
2024-02-09T05:32:13.956Z,4.57
2024-02-09T05:34:47.557Z,3.20
2024-02-09T05:37:19.397Z,2.83
2024-02-09T05:39:49.073Z,3.05
2024-02-09T05:42:18.573Z,4.75
2024-02-09T05:44:48.035Z,3.90
2024-02-09T05:47:18.983Z,1.65
2024-02-09T05:49:49.741Z,1.40
2024-02-09T05:52:19.256Z,1.35
2024-02-09T05:54:48.906Z,1.95
2024-02-09T05:57:18.569Z,1.60
2024-02-09T05:59:48.174Z,4.68
2024-02-09T06:02:19.399Z,3.53
2024-02-09T06:04:50.334Z,1.70
2024-02-09T06:07:19.905Z,1.25
2024-02-09T06:09:49.353Z,1.85
2024-02-09T06:12:18.816Z,1.98
2024-02-09T06:14:49.105Z,2.67
2024-02-09T06:17:21.137Z,2.60
2024-02-09T06:19:51.247Z,1.17
2024-02-09T06:22:20.813Z,0.77
2024-02-09T06:24:56.333Z,1.10
2024-02-09T06:27:26.437Z,1.60
2024-02-09T06:29:56.166Z,1.40
2024-02-09T06:32:28.338Z,2.42
2024-02-09T06:34:57.965Z,1.75
2024-02-09T06:37:27.665Z,1.58
2024-02-09T06:39:57.254Z,2.20
2024-02-09T06:42:26.670Z,1.90
2024-02-09T06:46:49.899Z,1.52
2024-02-09T06:49:19.553Z,1.20
2024-02-09T06:51:49.005Z,2.47
2024-02-09T06:54:18.554Z,3.17
2024-02-09T06:56:47.957Z,4.05
2024-02-09T06:59:17.659Z,18.55
2024-02-09T07:01:49.051Z,8.40
2024-02-09T07:04:19.787Z,9.10
2024-02-09T07:06:49.943Z,10.48
2024-02-09T07:09:33.053Z,4.55
2024-02-09T07:12:06.378Z,5.43
2024-02-09T07:14:35.994Z,4.63
2024-02-09T07:17:07.344Z,3.50
2024-02-09T07:19:37.597Z,4.25
2024-02-09T07:22:07.511Z,4.53
2024-02-09T07:24:37.044Z,4.07
2024-02-09T07:27:06.992Z,3.65
2024-02-09T07:29:36.441Z,5.03
2024-02-09T07:32:09.048Z,5.95
2024-02-09T07:34:39.861Z,5.18
2024-02-09T07:37:09.557Z,5.47
2024-02-09T07:39:39.030Z,5.47
2024-02-09T07:42:09.768Z,4.82
2024-02-09T07:44:41.271Z,3.35
2024-02-09T07:47:12.227Z,2.15
2024-02-09T07:49:41.731Z,2.45
2024-02-09T07:52:11.544Z,1.95
2024-02-09T07:54:41.145Z,2.42
2024-02-09T07:57:10.649Z,1.80
2024-02-09T07:59:41.131Z,1.25
2024-02-09T08:02:12.516Z,1.83
2024-02-09T08:04:42.277Z,2.28
2024-02-09T08:07:12.021Z,1.90
2024-02-09T08:09:41.650Z,1.67
2024-02-09T08:12:14.060Z,1.30
2024-02-09T08:14:44.241Z,1.67
2024-02-09T08:17:15.913Z,1.40
2024-02-09T08:19:45.512Z,2.63
2024-02-09T08:22:20.781Z,1.85
2024-02-09T08:24:50.268Z,1.17
2024-02-09T08:27:19.925Z,2.42
2024-02-09T08:29:57.693Z,2.30
2024-02-09T08:32:28.864Z,1.55
2024-02-09T08:34:58.743Z,1.15
2024-02-09T08:37:28.971Z,1.55
2024-02-09T08:39:58.937Z,1.35
2024-02-09T08:42:29.187Z,1.45
2024-02-09T08:44:59.326Z,1.27
2024-02-09T08:47:30.922Z,1.98
2024-02-09T08:50:00.525Z,1.15
2024-02-09T08:52:31.631Z,1.65
2024-02-09T08:55:01.120Z,1.30
2024-02-09T08:57:30.852Z,1.08
2024-02-09T09:00:00.569Z,1.90
2024-02-09T09:02:31.964Z,1.00
2024-02-09T09:05:01.711Z,1.40
2024-02-09T09:07:31.589Z,0.98
2024-02-09T09:10:01.236Z,1.40
2024-02-09T09:12:30.685Z,1.23
2024-02-09T09:15:00.621Z,1.75
2024-02-09T09:17:32.436Z,1.40
2024-02-09T09:20:02.426Z,1.83
2024-02-09T09:22:32.752Z,3.72
2024-02-09T09:25:08.813Z,3.88
2024-02-09T09:27:38.598Z,2.15
2024-02-09T09:30:09.791Z,3.10
2024-02-09T09:32:40.795Z,2.58
2024-02-09T09:35:11.197Z,5.55
2024-02-09T09:37:40.975Z,3.70
2024-02-09T09:40:14.133Z,6.68
2024-02-09T09:42:44.611Z,4.45
2024-02-09T09:46:51.537Z,3.05
2024-02-09T09:49:24.526Z,2.40
2024-02-09T09:51:55.932Z,2.78
2024-02-09T09:54:27.411Z,2.22
2024-02-09T09:56:58.313Z,2.75
2024-02-09T09:59:27.801Z,4.10
2024-02-09T10:01:58.844Z,2.10
2024-02-09T10:04:28.542Z,3.40
2024-02-09T10:06:58.124Z,3.60
2024-02-09T10:09:27.676Z,3.92
2024-02-09T10:11:57.389Z,2.38
2024-02-09T10:14:28.374Z,1.90
2024-02-09T10:16:59.667Z,1.73
2024-02-09T10:19:29.268Z,2.83
2024-02-09T10:22:00.844Z,2.42
2024-02-09T10:24:32.990Z,2.35
2024-02-09T10:27:03.470Z,1.90
2024-02-09T10:29:33.015Z,1.67
2024-02-09T10:32:03.921Z,2.85
2024-02-09T10:34:37.961Z,1.98
2024-02-09T10:37:11.071Z,2.15
2024-02-09T10:39:47.269Z,2.03
2024-02-09T10:42:18.114Z,3.65
2024-02-09T10:44:49.479Z,2.22
2024-02-09T10:47:21.049Z,5.70
2024-02-09T10:49:51.632Z,4.50
2024-02-09T10:52:22.635Z,2.47
2024-02-09T10:54:53.244Z,1.70
2024-02-09T10:57:23.811Z,3.10
2024-02-09T10:59:54.080Z,2.72
2024-02-09T11:02:25.292Z,2.10
2024-02-09T11:04:56.449Z,2.38
2024-02-09T11:07:27.568Z,2.45
2024-02-09T11:09:57.540Z,1.88
2024-02-09T11:12:27.070Z,2.00
2024-02-09T11:14:57.246Z,1.38
2024-02-09T11:17:31.328Z,1.95
2024-02-09T11:20:00.860Z,2.30
2024-02-09T11:22:32.076Z,1.65
2024-02-09T11:25:03.997Z,1.80
2024-02-09T11:27:34.131Z,1.33
2024-02-09T11:30:03.613Z,3.38
2024-02-09T11:32:35.510Z,1.88
2024-02-09T11:35:05.511Z,2.70
2024-02-09T11:37:37.428Z,2.40
2024-02-09T11:40:10.128Z,3.25
2024-02-09T11:42:40.164Z,2.30
2024-02-09T11:45:11.514Z,1.80
2024-02-09T11:47:43.260Z,3.70
2024-02-09T11:50:22.842Z,3.77
2024-02-09T11:53:05.181Z,1.70
2024-02-09T11:55:45.881Z,3.10
2024-02-09T11:58:16.973Z,1.98
2024-02-09T12:00:46.761Z,2.40
2024-02-09T12:03:18.165Z,2.58
2024-02-09T12:05:52.454Z,1.60
2024-02-09T12:08:22.437Z,2.78
2024-02-09T12:10:53.630Z,2.25
2024-02-09T12:13:23.279Z,3.55
2024-02-09T12:15:54.535Z,2.10
2024-02-09T12:18:25.875Z,3.28
2024-02-09T12:20:56.244Z,7.00
2024-02-09T12:23:26.101Z,4.50
2024-02-09T12:25:55.982Z,3.17
2024-02-09T12:28:26.357Z,4.40
2024-02-09T12:30:56.011Z,2.13
2024-02-09T12:33:27.634Z,3.65
2024-02-09T12:35:57.599Z,3.60
2024-02-09T12:38:27.625Z,4.13
2024-02-09T12:40:59.518Z,2.95
2024-02-09T12:46:49.635Z,3.80
2024-02-09T12:49:21.851Z,1.48
2024-02-09T12:51:54.874Z,2.00
2024-02-09T12:54:26.871Z,0.70
2024-02-09T12:56:56.777Z,1.27
2024-02-09T12:59:26.271Z,1.75
2024-02-09T13:01:57.357Z,3.95
2024-02-09T13:04:27.136Z,4.35
2024-02-09T13:06:59.240Z,3.97
2024-02-09T13:09:29.435Z,4.07
2024-02-09T13:11:59.013Z,2.95
2024-02-09T13:14:28.599Z,3.92
2024-02-09T13:16:59.872Z,3.60
2024-02-09T13:19:32.333Z,4.90
2024-02-09T13:24:33.296Z,4.20
2024-02-09T13:27:02.815Z,2.85
2024-02-09T13:29:32.939Z,2.65
2024-02-09T13:32:03.910Z,3.03
2024-02-09T13:34:33.455Z,3.15
2024-02-09T13:37:03.028Z,2.75
2024-02-09T13:39:32.488Z,3.75
2024-02-09T13:42:02.152Z,2.60
2024-02-09T13:44:31.607Z,2.95
2024-02-09T13:47:02.570Z,2.80
2024-02-09T13:49:32.201Z,2.55
2024-02-09T13:52:02.551Z,2.33
2024-02-09T13:54:33.540Z,2.20
2024-02-09T13:57:02.988Z,2.47
2024-02-09T13:59:32.330Z,2.53
2024-02-09T14:02:03.365Z,1.95
2024-02-09T14:04:33.031Z,2.58
2024-02-09T14:07:03.263Z,2.25
2024-02-09T14:09:37.299Z,1.80
2024-02-09T14:12:08.495Z,1.38
2024-02-09T14:14:37.987Z,1.92
2024-02-09T14:17:09.022Z,2.63
2024-02-09T14:19:39.768Z,3.72
2024-02-09T14:22:09.415Z,2.97
2024-02-09T14:24:39.595Z,3.05
2024-02-09T14:27:12.986Z,4.68
2024-02-09T14:29:42.727Z,3.65
2024-02-09T14:32:13.699Z,5.78
2024-02-09T14:34:45.101Z,3.90
2024-02-09T14:37:14.939Z,4.57
2024-02-09T14:39:46.446Z,4.28
2024-02-09T14:42:15.948Z,6.40
2024-02-09T14:44:49.679Z,7.43
2024-02-09T14:47:22.027Z,7.70
2024-02-09T14:49:52.288Z,7.55
2024-02-09T14:52:22.897Z,2.72
2024-02-09T14:54:52.415Z,2.10
2024-02-09T14:57:22.013Z,2.58
2024-02-09T14:59:52.307Z,1.95
2024-02-09T15:02:24.425Z,2.33
2024-02-09T15:04:54.132Z,3.38
2024-02-09T15:07:29.294Z,2.78
2024-02-09T15:09:59.321Z,5.05
2024-02-09T15:12:28.865Z,4.20
2024-02-09T15:15:00.853Z,2.90
2024-02-09T15:17:32.095Z,2.75
2024-02-09T15:20:01.848Z,2.78
2024-02-09T15:22:31.506Z,2.55
2024-02-09T15:25:01.147Z,3.28
2024-02-09T15:27:30.616Z,2.00
2024-02-09T15:30:00.354Z,2.05
2024-02-09T15:32:31.324Z,2.53
2024-02-09T15:35:02.989Z,2.72
2024-02-09T15:37:33.894Z,2.10
2024-02-09T15:40:03.471Z,2.38
2024-02-09T15:42:33.671Z,1.98
2024-02-09T15:46:50.427Z,2.40
2024-02-09T15:49:21.085Z,2.20
2024-02-09T15:51:50.549Z,2.33
2024-02-09T15:54:21.577Z,2.97
2024-02-09T15:56:51.459Z,3.13
2024-02-09T15:59:21.113Z,2.70
2024-02-09T16:01:53.835Z,2.47
2024-02-09T16:04:25.568Z,3.55
2024-02-09T16:06:55.972Z,2.00
2024-02-09T16:09:25.571Z,1.83
2024-02-09T16:11:55.149Z,2.63
2024-02-09T16:14:25.723Z,2.05
2024-02-09T16:16:57.954Z,2.58
2024-02-09T16:19:27.663Z,2.15
2024-02-09T16:21:57.231Z,1.77
2024-02-09T16:24:26.733Z,2.15
2024-02-09T16:26:56.127Z,1.80
2024-02-09T16:29:25.816Z,2.22
2024-02-09T16:31:57.350Z,2.78
2024-02-09T16:34:26.940Z,2.33
2024-02-09T16:36:56.376Z,2.03
2024-02-09T16:39:28.025Z,2.47
2024-02-09T16:41:57.490Z,3.78
2024-02-09T16:44:26.986Z,2.60
2024-02-09T16:46:59.178Z,3.60
2024-02-09T16:49:29.077Z,2.70
2024-02-09T16:51:58.653Z,3.17
2024-02-09T16:54:28.959Z,3.40
2024-02-09T16:56:58.377Z,3.22
2024-02-09T16:59:27.988Z,2.45
2024-02-09T17:01:59.094Z,2.13
2024-02-09T17:04:28.743Z,2.22
2024-02-09T17:06:58.330Z,2.00
2024-02-09T17:09:27.909Z,2.15
2024-02-09T17:11:57.517Z,1.83
2024-02-09T17:14:26.952Z,2.33
2024-02-09T17:17:02.831Z,2.10
2024-02-09T17:19:33.279Z,2.08
2024-02-09T17:22:02.707Z,3.35
2024-02-09T17:24:32.229Z,2.13
2024-02-09T17:27:01.828Z,2.70
2024-02-09T17:29:31.347Z,2.60
2024-02-09T17:32:02.287Z,2.95
2024-02-09T17:34:31.831Z,2.72
2024-02-09T17:37:01.385Z,2.97
2024-02-09T17:39:32.693Z,2.53
2024-02-09T17:42:02.894Z,2.50
2024-02-09T17:44:32.319Z,2.95
2024-02-09T17:47:05.619Z,2.35
2024-02-09T17:49:35.529Z,3.90
2024-02-09T17:52:05.859Z,2.75
2024-02-09T17:54:35.497Z,2.38
2024-02-09T17:57:05.241Z,2.17
2024-02-09T17:59:34.833Z,2.72
2024-02-09T18:02:06.532Z,4.20
2024-02-09T18:04:36.234Z,3.65
2024-02-09T18:07:06.427Z,2.65
2024-02-09T18:09:35.958Z,2.70
2024-02-09T18:12:05.858Z,3.03
2024-02-09T18:14:35.456Z,3.75
2024-02-09T18:17:09.004Z,3.47
2024-02-09T18:19:38.903Z,3.22
2024-02-09T18:22:10.986Z,3.13
2024-02-09T18:24:41.220Z,1.33
2024-02-09T18:27:10.625Z,1.58
2024-02-09T18:29:40.333Z,1.45
2024-02-09T18:32:14.115Z,1.27
2024-02-09T18:34:43.982Z,1.95
2024-02-09T18:37:13.609Z,1.40
2024-02-09T18:39:43.130Z,2.08
2024-02-09T18:42:14.672Z,3.40
2024-02-09T18:46:56.964Z,3.00
2024-02-09T18:49:30.811Z,2.65
2024-02-09T18:52:01.824Z,1.95
2024-02-09T18:54:31.432Z,1.63
2024-02-09T18:57:00.854Z,1.98
2024-02-09T18:59:30.350Z,3.03
2024-02-09T19:02:01.663Z,1.13
2024-02-09T19:04:33.898Z,1.00
2024-02-09T19:07:03.514Z,1.30
2024-02-09T19:09:32.974Z,1.45
2024-02-09T19:12:02.487Z,1.08
2024-02-09T19:14:32.392Z,1.33
2024-02-09T19:17:04.164Z,2.30
2024-02-09T19:19:33.756Z,1.40
2024-02-09T19:22:03.296Z,6.90
2024-02-09T19:24:32.823Z,2.60
2024-02-09T19:27:03.572Z,5.45
2024-02-09T19:29:34.871Z,2.22
2024-02-09T19:32:06.353Z,1.55
2024-02-09T19:34:36.250Z,1.73
2024-02-09T19:37:06.332Z,1.42
2024-02-09T19:39:36.154Z,3.78
2024-02-09T19:42:06.305Z,2.60
2024-02-09T19:44:36.460Z,3.65
2024-02-09T19:47:07.573Z,6.07
2024-02-09T19:49:37.305Z,5.32
2024-02-09T19:52:07.628Z,4.78
2024-02-09T19:54:37.370Z,4.53
2024-02-09T19:57:07.286Z,2.95
2024-02-09T19:59:36.811Z,2.42
2024-02-09T20:02:12.185Z,2.17
2024-02-09T20:04:42.360Z,1.42
2024-02-09T20:07:12.431Z,1.23
2024-02-09T20:09:41.889Z,0.93
2024-02-09T20:12:11.492Z,1.45
2024-02-09T20:14:40.849Z,1.33
2024-02-09T20:17:11.658Z,1.25
2024-02-09T20:19:42.297Z,1.25
2024-02-09T20:22:14.868Z,1.70
2024-02-09T20:24:44.335Z,1.63
2024-02-09T20:27:15.050Z,0.95
2024-02-09T20:29:44.715Z,1.40
2024-02-09T20:32:15.617Z,1.55
2024-02-09T20:34:52.332Z,1.60
2024-02-09T20:37:23.301Z,1.30
2024-02-09T20:39:52.731Z,1.55
2024-02-09T20:42:22.568Z,1.25
2024-02-09T20:44:52.096Z,2.25
2024-02-09T20:47:22.985Z,2.00
2024-02-09T20:49:53.499Z,2.03
2024-02-09T20:52:24.600Z,1.60
2024-02-09T20:54:54.358Z,2.17
2024-02-09T20:57:24.011Z,0.95
2024-02-09T20:59:53.392Z,1.08
2024-02-09T21:02:24.505Z,2.50
2024-02-09T21:04:54.097Z,2.72
2024-02-09T21:07:23.721Z,4.57
2024-02-09T21:09:53.146Z,4.63
2024-02-09T21:12:24.383Z,5.22
2024-02-09T21:14:53.829Z,6.15
2024-02-09T21:17:24.710Z,6.20
2024-02-09T21:19:56.320Z,7.53
2024-02-09T21:22:26.040Z,6.57
2024-02-09T21:24:55.689Z,7.72
2024-02-09T21:27:25.092Z,6.63
2024-02-09T21:29:55.408Z,5.32
2024-02-09T21:32:26.468Z,5.97
2024-02-09T21:34:57.718Z,8.88
2024-02-09T21:37:28.232Z,8.55
2024-02-09T21:40:02.437Z,7.63
2024-02-09T21:42:44.065Z,4.03
2024-02-09T21:46:50.610Z,3.70
2024-02-09T21:49:20.542Z,3.25
2024-02-09T21:51:50.448Z,4.13
2024-02-09T21:54:34.426Z,4.05
2024-02-09T21:57:04.867Z,3.17
2024-02-09T21:59:34.230Z,2.40
2024-02-09T22:02:05.467Z,3.88
2024-02-09T22:04:34.968Z,3.20
2024-02-09T22:07:06.212Z,3.65
2024-02-09T22:09:35.716Z,3.30
2024-02-09T22:12:08.046Z,3.10
2024-02-09T22:14:38.267Z,3.90
2024-02-09T22:17:09.216Z,3.42
2024-02-09T22:19:40.006Z,2.28
2024-02-09T22:22:11.231Z,2.25
2024-02-09T22:24:41.742Z,1.60
2024-02-09T22:27:11.289Z,2.35
2024-02-09T22:29:40.709Z,2.33
2024-02-09T22:32:12.840Z,3.00
2024-02-09T22:34:44.899Z,2.65
2024-02-09T22:37:16.294Z,2.00
2024-02-09T22:39:47.166Z,2.03
2024-02-09T22:42:19.442Z,2.35
2024-02-09T22:44:50.227Z,2.00
2024-02-09T22:47:21.344Z,1.45
2024-02-09T22:49:51.780Z,1.33
2024-02-09T22:52:21.496Z,1.30
2024-02-09T22:54:54.940Z,2.80
2024-02-09T22:57:24.418Z,1.92
2024-02-09T22:59:56.956Z,2.55
2024-02-09T23:02:28.118Z,1.80
2024-02-09T23:04:58.152Z,1.83
2024-02-09T23:07:27.648Z,2.17
2024-02-09T23:09:57.063Z,2.25
2024-02-09T23:12:26.595Z,2.58
2024-02-09T23:14:58.677Z,2.90
2024-02-09T23:17:29.599Z,2.10
2024-02-09T23:19:59.151Z,2.03
2024-02-09T23:22:32.319Z,1.55
2024-02-09T23:25:02.050Z,1.42
2024-02-09T23:27:32.913Z,1.38
2024-02-09T23:30:02.989Z,1.27
2024-02-09T23:32:35.014Z,1.85
2024-02-09T23:35:05.062Z,1.50
2024-02-09T23:37:34.631Z,1.90
2024-02-09T23:40:05.786Z,2.28
2024-02-09T23:42:35.425Z,2.45
2024-02-09T23:45:05.110Z,2.38
2024-02-09T23:47:36.329Z,1.92
2024-02-09T23:50:06.601Z,2.85
2024-02-09T23:52:37.449Z,2.10
2024-02-09T23:55:11.151Z,2.25
2024-02-09T23:57:41.108Z,3.40
